createdAt,value
2017-08-09T00:00:56.161Z,67.80
2017-08-09T00:03:23.753Z,67.80
2017-08-09T00:05:51.177Z,67.80
2017-08-09T00:08:18.599Z,67.90
2017-08-09T00:10:46.043Z,67.80
2017-08-09T00:13:13.475Z,68.00
2017-08-09T00:15:40.911Z,67.90
2017-08-09T00:18:08.375Z,67.90
2017-08-09T00:20:35.805Z,67.90
2017-08-09T00:23:03.254Z,67.90
2017-08-09T00:25:30.698Z,68.10
2017-08-09T00:27:58.114Z,68.10
2017-08-09T00:30:25.528Z,68.10
2017-08-09T00:32:53.129Z,68.10
2017-08-09T00:35:20.955Z,68.20
2017-08-09T00:37:48.376Z,68.20
2017-08-09T00:40:15.830Z,68.30
2017-08-09T00:42:43.247Z,68.30
2017-08-09T00:45:10.702Z,68.50
2017-08-09T00:47:38.153Z,68.50
2017-08-09T00:50:05.568Z,68.50
2017-08-09T00:52:32.991Z,68.70
2017-08-09T00:55:00.594Z,68.80
2017-08-09T00:57:28.016Z,68.60
2017-08-09T00:59:55.439Z,68.50
2017-08-09T01:02:22.897Z,68.60
2017-08-09T01:04:50.319Z,68.70
2017-08-09T01:07:17.764Z,68.80
2017-08-09T01:09:45.181Z,68.90
2017-08-09T01:12:12.617Z,68.90
2017-08-09T01:14:40.025Z,68.90
2017-08-09T01:17:07.458Z,69.00
2017-08-09T01:19:34.888Z,69.00
2017-08-09T01:22:02.346Z,69.10
2017-08-09T01:24:29.962Z,69.20
2017-08-09T01:26:57.383Z,69.10
2017-08-09T01:29:24.801Z,69.30
2017-08-09T01:31:52.272Z,69.10
2017-08-09T01:34:19.719Z,69.10
2017-08-09T01:36:47.153Z,69.20
2017-08-09T01:39:15.329Z,69.30
2017-08-09T01:41:42.739Z,69.40
2017-08-09T01:44:10.166Z,69.40
2017-08-09T01:46:37.609Z,69.40
2017-08-09T01:49:05.043Z,69.30
2017-08-09T01:51:32.471Z,69.30
2017-08-09T01:54:00.026Z,69.40
2017-08-09T01:56:27.441Z,69.50
2017-08-09T01:58:54.868Z,69.40
2017-08-09T02:01:22.311Z,69.40
2017-08-09T02:03:49.723Z,69.60
2017-08-09T02:06:17.188Z,69.70
2017-08-09T02:08:44.628Z,69.70
2017-08-09T02:11:12.051Z,69.80
2017-08-09T02:13:39.475Z,69.90
2017-08-09T02:16:06.909Z,70.30
2017-08-09T02:18:34.331Z,70.40
2017-08-09T02:21:06.064Z,70.90
2017-08-09T02:23:33.497Z,70.90
2017-08-09T02:26:00.920Z,70.90
2017-08-09T02:28:28.357Z,71.00
2017-08-09T02:30:56.073Z,71.10
2017-08-09T02:33:23.514Z,71.20
2017-08-09T02:35:50.933Z,71.40
2017-08-09T02:38:18.387Z,71.50
2017-08-09T02:40:45.795Z,71.60
2017-08-09T02:43:13.222Z,71.80
2017-08-09T02:45:40.657Z,72.20
2017-08-09T02:48:08.157Z,72.30
2017-08-09T02:50:35.575Z,72.50
2017-08-09T02:53:03.034Z,72.60
2017-08-09T02:55:30.461Z,72.80
2017-08-09T02:57:57.889Z,72.70
2017-08-09T03:00:25.337Z,72.80
2017-08-09T03:02:52.759Z,72.70
2017-08-09T03:05:20.198Z,72.50
2017-08-09T03:07:47.632Z,72.50
2017-08-09T03:10:15.066Z,72.50
2017-08-09T03:12:42.477Z,72.40
2017-08-09T03:15:09.913Z,72.40
2017-08-09T03:17:37.355Z,72.40
2017-08-09T03:20:04.791Z,72.30
2017-08-09T03:22:38.646Z,72.30
2017-08-09T03:25:06.067Z,72.50
2017-08-09T03:27:33.518Z,72.60
2017-08-09T03:30:00.963Z,72.70
2017-08-09T03:32:28.388Z,72.70
2017-08-09T03:34:55.831Z,72.50
2017-08-09T03:37:23.305Z,72.50
2017-08-09T03:39:50.731Z,72.40
2017-08-09T03:42:18.548Z,72.30
2017-08-09T03:44:45.987Z,72.30
2017-08-09T03:47:13.412Z,72.10
2017-08-09T03:49:40.840Z,71.90
2017-08-09T03:52:08.296Z,71.90
2017-08-09T03:54:35.740Z,71.80
2017-08-09T03:57:03.159Z,71.80
2017-08-09T03:59:32.298Z,71.60
2017-08-09T04:01:59.725Z,71.70
2017-08-09T04:04:27.555Z,71.60
2017-08-09T04:06:55.020Z,71.60
2017-08-09T04:09:22.438Z,71.60
2017-08-09T04:11:49.864Z,71.70
2017-08-09T04:14:17.310Z,71.90
2017-08-09T04:16:44.725Z,71.80
2017-08-09T04:19:12.155Z,71.80
2017-08-09T04:21:39.995Z,72.00
2017-08-09T04:24:07.435Z,72.00
2017-08-09T04:26:34.863Z,72.00
2017-08-09T04:29:02.291Z,72.10
2017-08-09T04:31:29.706Z,72.10
2017-08-09T04:33:57.124Z,72.20
2017-08-09T04:36:24.595Z,72.20
2017-08-09T04:38:52.026Z,72.20
2017-08-09T04:41:19.450Z,72.20
2017-08-09T04:43:46.893Z,72.00
2017-08-09T04:46:14.313Z,72.00
2017-08-09T04:48:41.756Z,71.90
2017-08-09T04:51:09.199Z,72.10
2017-08-09T04:53:36.625Z,72.10
2017-08-09T04:56:04.057Z,72.00
2017-08-09T04:58:31.686Z,72.00
2017-08-09T05:00:59.113Z,71.80
2017-08-09T05:03:26.527Z,71.90
2017-08-09T05:05:53.963Z,71.90
2017-08-09T05:08:21.402Z,71.80
2017-08-09T05:10:49.139Z,72.00
2017-08-09T05:13:17.478Z,72.10
2017-08-09T05:15:44.923Z,72.10
2017-08-09T05:18:12.389Z,72.20
2017-08-09T05:20:39.822Z,72.20
2017-08-09T05:23:07.270Z,72.00
2017-08-09T05:25:34.721Z,72.00
2017-08-09T05:28:02.154Z,72.10
2017-08-09T05:30:29.574Z,72.10
2017-08-09T05:32:57.017Z,72.00
2017-08-09T05:35:24.503Z,71.90
2017-08-09T05:37:51.948Z,71.60
2017-08-09T05:40:19.388Z,71.50
2017-08-09T05:42:46.835Z,71.40
2017-08-09T05:45:14.277Z,70.90
2017-08-09T05:47:41.694Z,70.80
2017-08-09T05:50:09.154Z,70.60
2017-08-09T05:52:36.599Z,70.40
2017-08-09T05:55:04.055Z,70.70
2017-08-09T05:57:31.475Z,70.60
2017-08-09T05:59:58.894Z,70.70
2017-08-09T06:02:26.322Z,70.60
2017-08-09T06:04:53.765Z,70.70
2017-08-09T06:07:21.182Z,70.10
2017-08-09T06:09:48.600Z,70.00
2017-08-09T06:12:16.199Z,69.90
2017-08-09T06:14:43.606Z,69.90
2017-08-09T06:17:11.033Z,69.90
2017-08-09T06:19:38.493Z,70.00
2017-08-09T06:22:05.900Z,69.50
2017-08-09T06:24:33.334Z,69.30
2017-08-09T06:27:00.799Z,69.40
2017-08-09T06:29:28.398Z,69.50
2017-08-09T06:31:55.830Z,69.50
2017-08-09T06:34:23.272Z,69.50
2017-08-09T06:36:51.027Z,68.90
2017-08-09T06:39:18.450Z,69.10
2017-08-09T06:41:46.274Z,68.40
2017-08-09T06:44:13.826Z,68.40
2017-08-09T06:46:41.263Z,68.60
2017-08-09T06:49:08.687Z,68.60
2017-08-09T06:51:36.154Z,68.30
2017-08-09T06:54:03.575Z,68.20
2017-08-09T06:56:31.008Z,67.60
2017-08-09T06:58:58.876Z,66.20
2017-08-09T07:01:26.707Z,66.40
2017-08-09T07:03:54.129Z,66.40
2017-08-09T07:06:21.617Z,65.80
2017-08-09T07:08:49.055Z,65.70
2017-08-09T07:11:16.489Z,65.80
2017-08-09T07:13:44.334Z,66.20
2017-08-09T07:16:11.753Z,66.00
2017-08-09T07:18:39.217Z,65.50
2017-08-09T07:21:06.620Z,65.50
2017-08-09T07:23:34.050Z,65.00
2017-08-09T07:26:01.589Z,65.20
2017-08-09T07:28:29.396Z,65.20
2017-08-09T07:30:56.850Z,65.20
2017-08-09T07:33:24.489Z,65.00
2017-08-09T07:35:51.950Z,65.10
2017-08-09T07:38:19.367Z,65.30
2017-08-09T07:40:46.845Z,65.10
2017-08-09T07:43:14.281Z,64.50
2017-08-09T07:45:41.706Z,64.20
2017-08-09T07:48:09.190Z,64.00
2017-08-09T07:50:36.608Z,63.60
2017-08-09T07:53:04.417Z,63.20
2017-08-09T07:55:31.882Z,63.20
2017-08-09T07:57:59.310Z,63.10
2017-08-09T08:00:26.729Z,62.20
2017-08-09T08:02:54.216Z,61.80
2017-08-09T08:05:21.623Z,61.00
2017-08-09T08:07:49.027Z,61.10
2017-08-09T08:10:16.453Z,61.50
2017-08-09T08:12:43.869Z,60.70
2017-08-09T08:15:11.513Z,60.50
2017-08-09T08:17:39.048Z,60.90
2017-08-09T08:20:06.463Z,60.60
2017-08-09T08:22:34.302Z,61.30
2017-08-09T08:25:01.718Z,61.30
2017-08-09T08:27:29.168Z,60.70
2017-08-09T08:29:56.610Z,61.00
2017-08-09T08:32:24.043Z,61.10
2017-08-09T08:34:51.455Z,60.80
2017-08-09T08:37:19.326Z,60.90
2017-08-09T08:39:46.762Z,60.90
2017-08-09T08:42:14.176Z,61.00
2017-08-09T08:44:41.625Z,60.80
2017-08-09T08:47:10.052Z,60.70
2017-08-09T08:49:37.462Z,60.40
2017-08-09T08:52:04.968Z,60.30
2017-08-09T08:54:32.393Z,60.20
2017-08-09T08:56:59.849Z,60.10
2017-08-09T08:59:27.337Z,59.80
2017-08-09T09:01:54.768Z,59.20
2017-08-09T09:04:22.575Z,58.30
2017-08-09T09:06:50.024Z,58.30
2017-08-09T09:09:17.442Z,58.40
2017-08-09T09:11:44.892Z,58.30
2017-08-09T09:14:12.325Z,58.40
2017-08-09T09:16:39.745Z,57.90
2017-08-09T09:19:07.209Z,58.30
2017-08-09T09:21:34.619Z,58.10
2017-08-09T09:24:02.054Z,57.80
2017-08-09T09:26:29.511Z,57.80
2017-08-09T09:28:56.939Z,57.20
2017-08-09T09:31:24.366Z,57.00
2017-08-09T09:33:51.829Z,55.80
2017-08-09T09:36:19.256Z,54.80
2017-08-09T09:38:46.669Z,53.90
2017-08-09T09:41:14.138Z,54.40
2017-08-09T09:43:41.570Z,54.10
2017-08-09T09:46:08.985Z,54.90
2017-08-09T09:48:36.849Z,54.00
2017-08-09T09:51:04.274Z,54.00
2017-08-09T09:53:31.692Z,52.80
2017-08-09T09:55:59.532Z,51.20
2017-08-09T09:58:26.961Z,51.20
2017-08-09T10:00:54.367Z,51.10
2017-08-09T10:03:22.203Z,51.20
2017-08-09T10:05:49.625Z,51.20
2017-08-09T10:08:17.086Z,51.50
2017-08-09T10:10:44.500Z,52.10
2017-08-09T10:13:11.914Z,52.00
2017-08-09T10:15:41.628Z,51.90
2017-08-09T10:18:09.028Z,51.70
2017-08-09T10:20:36.447Z,51.50
2017-08-09T10:23:03.887Z,51.70
2017-08-09T10:25:31.791Z,52.40
2017-08-09T10:28:00.113Z,52.40
2017-08-09T10:30:27.567Z,53.20
2017-08-09T10:32:54.995Z,53.10
2017-08-09T10:35:22.422Z,53.00
2017-08-09T10:37:50.488Z,52.40
2017-08-09T10:40:17.915Z,52.40
2017-08-09T10:42:45.367Z,52.90
2017-08-09T10:45:12.839Z,53.40
2017-08-09T10:47:40.294Z,54.40
2017-08-09T10:50:07.767Z,55.10
2017-08-09T10:52:35.208Z,55.10
2017-08-09T10:55:02.649Z,54.70
2017-08-09T10:57:30.526Z,54.20
2017-08-09T10:59:57.960Z,54.20
2017-08-09T11:02:25.391Z,54.70
2017-08-09T11:04:52.850Z,55.00
2017-08-09T11:07:20.307Z,54.20
2017-08-09T11:09:47.728Z,54.20
2017-08-09T11:12:15.596Z,54.10
2017-08-09T11:14:43.035Z,54.10
2017-08-09T11:17:10.468Z,53.60
2017-08-09T11:19:37.915Z,54.00
2017-08-09T11:22:05.373Z,54.40
2017-08-09T11:24:32.797Z,54.80
2017-08-09T11:27:00.359Z,53.70
2017-08-09T11:29:27.798Z,54.20
2017-08-09T11:31:55.219Z,54.00
2017-08-09T11:34:22.682Z,54.20
2017-08-09T11:36:50.089Z,53.00
2017-08-09T11:39:17.522Z,52.90
2017-08-09T11:41:44.995Z,52.70
2017-08-09T11:44:12.434Z,52.40
2017-08-09T11:46:39.858Z,52.20
2017-08-09T11:49:07.322Z,52.00
2017-08-09T11:51:34.754Z,52.20
2017-08-09T11:54:02.197Z,53.10
2017-08-09T11:56:29.758Z,52.20
2017-08-09T11:58:57.208Z,52.20
2017-08-09T12:01:24.634Z,51.00
2017-08-09T12:03:52.108Z,50.60
2017-08-09T12:06:19.950Z,50.10
2017-08-09T12:08:47.370Z,50.10
2017-08-09T12:11:14.836Z,49.90
2017-08-09T12:13:42.270Z,50.00
2017-08-09T12:16:10.094Z,49.10
2017-08-09T12:18:38.077Z,49.10
2017-08-09T12:21:05.510Z,48.60
2017-08-09T12:23:32.944Z,48.50
2017-08-09T12:26:00.394Z,48.10
2017-08-09T12:28:28.243Z,48.40
2017-08-09T12:30:55.706Z,48.40
2017-08-09T12:33:23.167Z,48.10
2017-08-09T12:35:50.616Z,48.20
2017-08-09T12:38:18.150Z,48.60
2017-08-09T12:40:45.606Z,47.00
2017-08-09T12:43:13.300Z,46.40
2017-08-09T12:45:40.770Z,46.60
2017-08-09T12:48:08.198Z,47.30
2017-08-09T12:50:36.264Z,47.60
2017-08-09T12:53:03.733Z,48.20
2017-08-09T12:55:31.166Z,48.60
2017-08-09T12:57:58.616Z,48.90
2017-08-09T13:00:26.075Z,48.70
2017-08-09T13:02:53.481Z,48.30
2017-08-09T13:05:20.905Z,48.80
2017-08-09T13:07:48.364Z,48.00
2017-08-09T13:10:15.837Z,48.30
2017-08-09T13:12:43.284Z,48.30
2017-08-09T13:15:10.742Z,48.70
2017-08-09T13:17:38.187Z,49.00
2017-08-09T13:20:05.617Z,48.30
2017-08-09T13:22:33.093Z,47.70
2017-08-09T13:25:00.563Z,47.50
2017-08-09T13:27:27.982Z,46.70
2017-08-09T13:29:55.863Z,46.00
2017-08-09T13:32:23.721Z,46.60
2017-08-09T13:34:51.214Z,46.60
2017-08-09T13:37:18.647Z,46.40
2017-08-09T13:39:46.466Z,44.70
2017-08-09T13:42:13.966Z,44.70
2017-08-09T13:44:41.457Z,45.60
2017-08-09T13:47:08.899Z,44.80
2017-08-09T13:49:36.367Z,44.80
2017-08-09T13:52:03.805Z,44.80
2017-08-09T13:54:31.264Z,44.70
2017-08-09T13:56:58.807Z,44.90
2017-08-09T13:59:26.271Z,44.80
2017-08-09T14:01:53.956Z,44.60
2017-08-09T14:04:21.774Z,45.30
2017-08-09T14:06:49.620Z,45.00
2017-08-09T14:09:17.215Z,44.70
2017-08-09T14:11:44.704Z,44.90
2017-08-09T14:14:12.161Z,44.80
2017-08-09T14:16:52.452Z,45.30
2017-08-09T14:19:19.880Z,44.90
2017-08-09T14:21:47.317Z,44.90
2017-08-09T14:24:14.791Z,44.50
2017-08-09T14:26:44.155Z,44.20
2017-08-09T14:29:11.571Z,44.30
2017-08-09T14:31:39.036Z,44.50
2017-08-09T14:34:06.481Z,44.30
2017-08-09T14:36:33.898Z,44.30
2017-08-09T14:39:01.353Z,44.30
2017-08-09T14:41:28.787Z,44.50
2017-08-09T14:43:56.268Z,45.00
2017-08-09T14:46:23.708Z,45.00
2017-08-09T14:48:51.133Z,45.60
2017-08-09T14:51:18.989Z,44.50
2017-08-09T14:53:46.421Z,44.50
2017-08-09T14:56:13.864Z,44.90
2017-08-09T14:58:41.326Z,44.10
2017-08-09T15:01:08.772Z,44.30
2017-08-09T15:03:36.238Z,44.50
2017-08-09T15:06:03.694Z,44.20
2017-08-09T15:08:31.138Z,44.00
2017-08-09T15:10:58.606Z,43.80
2017-08-09T15:13:26.040Z,44.00
2017-08-09T15:15:54.236Z,43.90
2017-08-09T15:18:22.094Z,43.80
2017-08-09T15:20:49.550Z,43.80
2017-08-09T15:23:17.039Z,44.20
2017-08-09T15:25:44.888Z,44.70
2017-08-09T15:28:12.346Z,44.70
2017-08-09T15:30:39.802Z,44.10
2017-08-09T15:33:07.237Z,44.30
2017-08-09T15:35:34.671Z,44.50
2017-08-09T15:38:02.160Z,44.00
2017-08-09T15:40:29.589Z,43.80
2017-08-09T15:42:57.008Z,43.70
2017-08-09T15:45:24.477Z,43.90
2017-08-09T15:47:51.932Z,44.10
2017-08-09T15:50:19.415Z,44.10
2017-08-09T15:52:47.401Z,43.90
2017-08-09T15:55:14.815Z,44.60
2017-08-09T15:57:42.248Z,44.50
2017-08-09T16:00:10.118Z,44.20
2017-08-09T16:02:37.601Z,44.80
2017-08-09T16:05:05.080Z,44.80
2017-08-09T16:07:32.495Z,44.40
2017-08-09T16:10:00.395Z,45.10
2017-08-09T16:12:27.849Z,45.10
2017-08-09T16:14:55.262Z,44.50
2017-08-09T16:17:22.841Z,44.30
2017-08-09T16:19:51.212Z,44.20
2017-08-09T16:22:18.638Z,44.30
2017-08-09T16:24:46.083Z,44.20
2017-08-09T16:27:13.566Z,44.50
2017-08-09T16:29:40.986Z,44.50
2017-08-09T16:32:08.846Z,44.60
2017-08-09T16:34:36.306Z,44.60
2017-08-09T16:37:03.758Z,44.70
2017-08-09T16:39:31.210Z,44.60
2017-08-09T16:41:58.774Z,44.50
2017-08-09T16:44:26.215Z,44.50
2017-08-09T16:46:53.679Z,44.10
2017-08-09T16:49:21.240Z,44.10
2017-08-09T16:51:48.656Z,44.20
2017-08-09T16:54:16.104Z,44.60
2017-08-09T16:56:43.567Z,45.60
2017-08-09T16:59:11.018Z,45.90
2017-08-09T17:01:38.409Z,46.10
2017-08-09T17:04:06.266Z,45.40
2017-08-09T17:06:33.703Z,45.30
2017-08-09T17:09:01.138Z,45.80
2017-08-09T17:11:28.600Z,45.90
2017-08-09T17:13:56.019Z,45.80
2017-08-09T17:16:24.389Z,46.30
2017-08-09T17:18:52.622Z,46.30
2017-08-09T17:21:20.078Z,46.40
2017-08-09T17:23:47.623Z,46.60
2017-08-09T17:26:15.459Z,46.20
2017-08-09T17:28:42.885Z,46.20
2017-08-09T17:31:10.298Z,46.00
2017-08-09T17:33:37.773Z,46.00
2017-08-09T17:36:05.585Z,46.40
2017-08-09T17:38:32.996Z,46.40
2017-08-09T17:41:01.642Z,46.60
2017-08-09T17:43:29.100Z,46.70
2017-08-09T17:45:56.530Z,46.80
2017-08-09T17:48:23.966Z,46.90
2017-08-09T17:50:51.415Z,47.20
2017-08-09T17:53:18.848Z,47.30
2017-08-09T17:55:46.303Z,47.30
2017-08-09T17:58:14.846Z,47.40
2017-08-09T18:00:42.282Z,47.60
2017-08-09T18:03:09.733Z,47.70
2017-08-09T18:05:37.371Z,47.50
2017-08-09T18:08:05.575Z,47.50
2017-08-09T18:10:33.427Z,47.60
2017-08-09T18:13:00.885Z,47.70
2017-08-09T18:15:28.344Z,47.70
2017-08-09T18:17:57.368Z,48.20
2017-08-09T18:20:28.115Z,48.20
2017-08-09T18:22:55.531Z,48.60
2017-08-09T18:25:24.074Z,49.00
2017-08-09T18:27:51.495Z,49.00
2017-08-09T18:30:18.930Z,48.80
2017-08-09T18:32:46.788Z,48.30
2017-08-09T18:35:14.227Z,48.30
2017-08-09T18:37:41.667Z,48.30
2017-08-09T18:40:09.440Z,48.60
2017-08-09T18:42:36.870Z,49.30
2017-08-09T18:45:04.774Z,49.50
2017-08-09T18:47:32.209Z,49.50
2017-08-09T18:49:59.675Z,49.20
2017-08-09T18:52:27.104Z,49.30
2017-08-09T18:54:54.543Z,49.30
2017-08-09T18:57:21.979Z,49.40
2017-08-09T18:59:49.922Z,49.20
2017-08-09T19:02:17.349Z,49.00
2017-08-09T19:04:44.788Z,49.00
2017-08-09T19:07:12.215Z,49.90
2017-08-09T19:09:39.899Z,50.20
2017-08-09T19:12:07.295Z,50.40
2017-08-09T19:14:34.710Z,50.80
2017-08-09T19:17:02.172Z,50.80
2017-08-09T19:19:29.649Z,50.90
2017-08-09T19:21:57.097Z,50.90
2017-08-09T19:24:24.550Z,51.20
2017-08-09T19:26:52.818Z,51.70
2017-08-09T19:29:20.262Z,51.70
2017-08-09T19:31:47.989Z,51.90
2017-08-09T19:34:15.418Z,51.80
2017-08-09T19:36:42.862Z,51.70
2017-08-09T19:39:10.288Z,51.80
2017-08-09T19:41:37.745Z,51.90
2017-08-09T19:44:05.154Z,52.10
2017-08-09T19:46:32.775Z,52.40
2017-08-09T19:49:00.230Z,52.40
2017-08-09T19:51:27.663Z,52.50
2017-08-09T19:53:55.258Z,52.70
2017-08-09T19:56:22.698Z,52.80
2017-08-09T19:58:50.195Z,53.10
2017-08-09T20:01:17.633Z,53.30
2017-08-09T20:03:45.081Z,53.30
2017-08-09T20:06:12.883Z,53.30
2017-08-09T20:08:40.322Z,53.30
2017-08-09T20:11:07.975Z,53.20
2017-08-09T20:13:35.411Z,53.40
2017-08-09T20:16:02.996Z,53.60
2017-08-09T20:18:30.834Z,54.20
2017-08-09T20:20:58.271Z,54.20
2017-08-09T20:23:25.727Z,54.40
2017-08-09T20:25:53.158Z,55.10
2017-08-09T20:28:20.985Z,55.20
2017-08-09T20:30:48.440Z,55.20
2017-08-09T20:33:15.860Z,55.40
2017-08-09T20:35:43.273Z,55.50
2017-08-09T20:38:10.723Z,55.90
2017-08-09T20:40:38.134Z,55.80
2017-08-09T20:43:07.381Z,56.10
2017-08-09T20:45:34.831Z,56.10
2017-08-09T20:48:02.285Z,56.60
2017-08-09T20:50:29.723Z,56.90
2017-08-09T20:52:57.194Z,57.00
2017-08-09T20:55:25.016Z,57.00
2017-08-09T20:57:52.478Z,57.00
2017-08-09T21:00:19.910Z,57.10
2017-08-09T21:02:47.318Z,57.20
2017-08-09T21:05:14.746Z,57.40
2017-08-09T21:07:42.200Z,57.50
2017-08-09T21:10:09.617Z,57.80
2017-08-09T21:12:37.048Z,58.60
2017-08-09T21:15:04.616Z,60.00
2017-08-09T21:17:32.036Z,61.40
2017-08-09T21:19:59.453Z,62.80
2017-08-09T21:22:26.897Z,63.10
2017-08-09T21:24:54.309Z,64.30
2017-08-09T21:27:22.121Z,65.40
2017-08-09T21:29:50.403Z,65.40
2017-08-09T21:32:18.038Z,65.50
2017-08-09T21:34:45.462Z,65.90
2017-08-09T21:37:13.080Z,66.40
2017-08-09T21:39:40.513Z,66.60
2017-08-09T21:42:08.335Z,67.30
2017-08-09T21:44:35.974Z,67.30
2017-08-09T21:47:03.916Z,67.80
2017-08-09T21:49:31.362Z,67.80
2017-08-09T21:51:58.824Z,68.40
2017-08-09T21:54:26.246Z,68.30
2017-08-09T21:56:53.686Z,67.80
2017-08-09T21:59:22.034Z,65.00
2017-08-09T22:01:49.469Z,64.40
2017-08-09T22:04:16.907Z,64.50
2017-08-09T22:06:44.366Z,64.20
2017-08-09T22:09:11.789Z,63.90
2017-08-09T22:11:40.149Z,65.00
2017-08-09T22:14:07.750Z,65.00
2017-08-09T22:16:35.570Z,65.10
2017-08-09T22:19:03.000Z,65.10
2017-08-09T22:21:31.179Z,64.80
2017-08-09T22:23:58.617Z,65.10
2017-08-09T22:26:26.432Z,65.20
2017-08-09T22:28:53.874Z,65.40
2017-08-09T22:31:21.284Z,65.60
2017-08-09T22:33:48.736Z,65.90
2017-08-09T22:36:16.897Z,66.80
2017-08-09T22:38:46.353Z,68.00
2017-08-09T22:41:14.632Z,68.20
2017-08-09T22:43:42.260Z,68.60
2017-08-09T22:46:09.675Z,69.70
2017-08-09T22:48:37.500Z,71.50
2017-08-09T22:51:04.930Z,71.40
2017-08-09T22:53:32.345Z,71.90
2017-08-09T22:55:59.752Z,72.00
2017-08-09T22:58:27.202Z,72.40
2017-08-09T23:00:54.629Z,73.20
2017-08-09T23:03:22.055Z,74.20
2017-08-09T23:05:49.475Z,74.20
2017-08-09T23:08:16.887Z,74.90
2017-08-09T23:10:44.305Z,75.20
2017-08-09T23:13:12.286Z,75.90
2017-08-09T23:15:39.713Z,75.90
2017-08-09T23:18:07.142Z,76.20
2017-08-09T23:20:34.578Z,76.40
2017-08-09T23:23:01.996Z,76.50
2017-08-09T23:25:29.421Z,76.50
2017-08-09T23:27:56.865Z,76.60
2017-08-09T23:30:24.289Z,76.90
2017-08-09T23:32:51.711Z,76.40
2017-08-09T23:35:19.299Z,76.60
2017-08-09T23:37:46.710Z,76.00
2017-08-09T23:40:14.126Z,75.90
2017-08-09T23:42:41.585Z,76.20
2017-08-09T23:45:09.028Z,76.70
2017-08-09T23:47:36.446Z,77.00
2017-08-09T23:50:05.206Z,77.20
2017-08-09T23:52:32.636Z,77.20
2017-08-09T23:55:00.055Z,77.50
2017-08-09T23:57:27.490Z,77.80
2017-08-09T23:59:54.920Z,77.50
